Time;durP1;ratioP1;P1;durP2;ratioP2;P2;SDS_P1;SDS_P2;PMS_P1;PMS_P2;Temp;Humidity;BMP_temperature;BMP_pressure;BME280_temperature;BME280_humidity;BME280_pressure;Samples;Min_cycle;Max_cycle;Signal;HPM_P1;HPM_P2
2023/01/02 00:01:11;;;;;;;10.45;5.38;;;11.20;99.90;;;;;;5018636;28;20034;-79
2023/01/02 00:03:37;;;;;;;10.77;5.43;;;11.80;99.90;;;;;;5045710;28;20513;-80
2023/01/02 00:06:04;;;;;;;12.52;5.75;;;11.70;99.90;;;;;;5049443;28;20063;-80
2023/01/02 00:08:30;;;;;;;13.52;6.20;;;11.10;99.90;;;;;;5044954;28;20033;-79
2023/01/02 00:10:55;;;;;;;10.77;6.25;;;11.10;99.90;;;;;;5041161;28;20044;-79
2023/01/02 00:13:21;;;;;;;10.65;5.80;;;11.80;99.90;;;;;;5031914;28;20063;-80
2023/01/02 00:15:47;;;;;;;12.43;6.35;;;11.10;99.90;;;;;;5013324;28;20401;-78
2023/01/02 00:18:13;;;;;;;12.70;6.43;;;11.90;99.90;;;;;;5016527;28;20064;-79
2023/01/02 00:20:38;;;;;;;15.52;7.47;;;11.70;99.90;;;;;;5046827;28;20074;-79
2023/01/02 00:23:04;;;;;;;14.73;7.63;;;11.80;99.90;;;;;;5043047;28;20057;-80
2023/01/02 00:25:33;;;;;;;14.40;7.63;;;11.70;99.90;;;;;;5052114;28;20029;-79
2023/01/02 00:27:59;;;;;;;14.13;8.15;;;11.30;99.90;;;;;;5049252;28;20041;-80
2023/01/02 00:30:25;;;;;;;18.33;8.82;;;11.70;99.90;;;;;;5039900;28;20048;-80
2023/01/02 00:32:51;;;;;;;14.95;7.75;;;11.10;99.90;;;;;;5056594;28;20044;-80
2023/01/02 00:35:17;;;;;;;17.65;8.35;;;11.70;99.90;;;;;;5053481;28;20497;-80
2023/01/02 00:37:43;;;;;;;14.57;7.72;;;11.80;99.90;;;;;;5057908;28;20062;-79
2023/01/02 00:40:12;;;;;;;15.88;8.15;;;11.10;99.90;;;;;;5053992;28;20045;-79
2023/01/02 00:42:42;;;;;;;14.07;8.48;;;11.10;99.90;;;;;;5038743;28;20493;-79
2023/01/02 00:45:09;;;;;;;15.98;8.30;;;11.10;99.90;;;;;;5037301;28;20079;-80
2023/01/02 00:47:34;;;;;;;14.52;7.40;;;11.10;99.90;;;;;;5052425;28;20450;-80
2023/01/02 00:50:00;;;;;;;16.58;8.10;;;11.10;99.90;;;;;;5035729;28;20064;-80
2023/01/02 00:52:26;;;;;;;15.45;7.25;;;11.10;99.90;;;;;;5042288;28;20049;-80
2023/01/02 00:54:51;;;;;;;13.43;7.70;;;11.10;99.90;;;;;;5053288;28;20044;-80
2023/01/02 00:57:17;;;;;;;13.52;8.07;;;11.30;99.90;;;;;;5055656;28;20040;-80
2023/01/02 00:59:43;;;;;;;13.00;7.53;;;11.10;99.90;;;;;;5050752;28;20060;-80
2023/01/02 01:02:09;;;;;;;16.73;8.90;;;11.40;99.90;;;;;;5037388;28;20043;-80
2023/01/02 01:04:35;;;;;;;19.13;8.43;;;12.00;99.90;;;;;;5050038;28;20474;-80
2023/01/02 01:07:01;;;;;;;18.25;8.85;;;11.20;99.90;;;;;;5053415;28;20404;-80
2023/01/02 01:09:27;;;;;;;13.38;7.90;;;11.60;99.90;;;;;;5057219;28;20041;-79
2023/01/02 01:11:52;;;;;;;19.65;7.88;;;11.80;99.90;;;;;;5051635;28;20485;-79
2023/01/02 01:14:18;;;;;;;14.23;8.70;;;11.30;99.90;;;;;;5051574;28;20040;-79
2023/01/02 01:16:44;;;;;;;20.77;8.73;;;12.10;99.90;;;;;;5050750;28;20041;-79
2023/01/02 01:19:09;;;;;;;14.88;8.60;;;11.90;99.90;;;;;;5046285;28;20029;-80
2023/01/02 01:21:36;;;;;;;18.70;8.73;;;11.90;99.90;;;;;;5051593;28;20032;-80
2023/01/02 01:24:03;;;;;;;15.25;7.72;;;11.20;99.90;;;;;;5047006;28;20116;-79
2023/01/02 01:26:29;;;;;;;17.33;7.90;;;11.20;99.90;;;;;;5038529;28;20124;-80
2023/01/02 01:28:56;;;;;;;19.83;8.50;;;11.90;99.90;;;;;;5054514;28;20450;-80
2023/01/02 01:31:23;;;;;;;16.95;8.18;;;11.20;99.90;;;;;;5014285;28;20029;-80
2023/01/02 01:33:49;;;;;;;18.70;8.35;;;11.90;99.90;;;;;;5034380;28;20039;-80
2023/01/02 01:36:22;;;;;;;15.63;7.95;;;11.00;99.90;;;;;;5019676;28;20029;-80
2023/01/02 01:38:49;;;;;;;14.93;7.95;;;12.10;99.90;;;;;;5036315;28;20121;-80
2023/01/02 01:41:20;;;;;;;15.80;8.82;;;11.20;99.90;;;;;;5019252;28;20041;-80
2023/01/02 01:43:58;;;;;;;16.65;8.38;;;11.50;99.90;;;;;;5034098;28;20138;-80
2023/01/02 01:46:38;;;;;;;16.90;8.00;;;10.80;99.90;;;;;;5053381;28;20488;-80
2023/01/02 01:49:25;;;;;;;13.23;8.20;;;11.40;99.90;;;;;;5037539;28;20493;-80
2023/01/02 01:51:55;;;;;;;20.52;8.77;;;11.20;99.90;;;;;;5053969;28;20063;-80
2023/01/02 01:55:00;;;;;;;18.23;8.20;;;11.80;99.90;;;;;;5052992;28;20083;-80
2023/01/02 01:57:48;;;;;;;18.35;8.07;;;11.20;99.90;;;;;;5003994;28;20048;-79
2023/01/02 02:00:14;;;;;;;17.23;7.82;;;11.80;99.90;;;;;;5035776;28;20049;-81
2023/01/02 02:02:45;;;;;;;16.67;7.75;;;11.20;99.90;;;;;;5035809;28;20029;-79
2023/01/02 02:05:13;;;;;;;13.13;6.97;;;11.60;99.90;;;;;;5015672;28;20115;-80
2023/01/02 02:07:44;;;;;;;14.35;7.50;;;11.50;99.90;;;;;;5019712;28;20041;-79
2023/01/02 02:10:11;;;;;;;13.82;7.00;;;11.90;99.90;;;;;;5027416;28;20404;-79
2023/01/02 02:12:37;;;;;;;14.75;7.65;;;11.20;99.90;;;;;;5009615;28;20071;-79
2023/01/02 02:15:03;;;;;;;18.23;8.20;;;11.20;99.90;;;;;;5032674;28;20451;-79
2023/01/02 02:17:57;;;;;;;16.95;8.38;;;11.20;99.90;;;;;;5035697;28;20432;-79
2023/01/02 02:21:20;;;;;;;20.08;8.73;;;11.20;99.90;;;;;;5034491;28;20036;-79
2023/01/02 02:24:07;;;;;;;18.73;8.57;;;11.20;99.90;;;;;;4986125;28;20052;-79
2023/01/02 02:26:39;;;;;;;17.73;7.78;;;11.30;99.90;;;;;;5034461;28;20080;-80
2023/01/02 02:29:39;;;;;;;16.50;7.95;;;11.20;99.90;;;;;;5044302;28;20049;-79
2023/01/02 02:32:44;;;;;;;15.52;7.18;;;11.30;99.90;;;;;;5016969;28;20048;-79
2023/01/02 02:35:12;;;;;;;16.67;7.93;;;11.30;99.90;;;;;;5011516;28;20049;-79
2023/01/02 02:37:45;;;;;;;13.52;7.20;;;12.00;99.90;;;;;;5039912;28;20064;-79
2023/01/02 02:40:31;;;;;;;;;;;11.80;99.90;;;;;;5029555;28;20052;-79
2023/01/02 02:43:07;;;;;;;16.90;7.82;;;11.50;99.90;;;;;;5024538;28;19920;-79
2023/01/02 02:45:48;;;;;;;16.80;7.95;;;11.30;99.90;;;;;;5036434;28;20088;-79
2023/01/02 02:48:56;;;;;;;20.45;7.70;;;11.30;99.90;;;;;;5053188;28;20488;-80
2023/01/02 02:51:42;;;;;;;16.33;7.70;;;11.30;99.90;;;;;;5050062;28;20382;-80
2023/01/02 02:54:14;;;;;;;13.13;7.30;;;11.30;99.90;;;;;;5057082;28;20037;-80
2023/01/02 02:56:41;;;;;;;15.10;6.60;;;11.70;99.90;;;;;;5056538;28;20477;-80
2023/01/02 02:59:07;;;;;;;13.23;7.30;;;11.90;99.90;;;;;;5061582;28;20055;-80
2023/01/02 03:01:35;;;;;;;13.00;7.03;;;11.60;99.90;;;;;;5062790;28;20408;-79
2023/01/02 03:04:00;;;;;;;11.63;7.13;;;12.00;99.90;;;;;;5050037;28;20029;-80
2023/01/02 03:07:07;;;;;;;14.25;7.28;;;11.90;99.90;;;;;;5021210;28;20067;-79
2023/01/02 03:10:01;;;;;;;18.20;7.35;;;11.40;99.90;;;;;;5051288;28;20103;-79
2023/01/02 03:12:34;;;;;;;16.30;7.40;;;11.10;99.90;;;;;;5036194;28;20052;-79
2023/01/02 03:15:20;;;;;;;17.90;7.78;;;12.00;99.90;;;;;;5029326;28;20044;-79
2023/01/02 03:18:23;;;;;;;15.95;7.05;;;11.40;99.90;;;;;;5025171;28;20079;-79
2023/01/02 03:21:05;;;;;;;17.30;7.07;;;11.40;99.90;;;;;;5034001;28;20037;-79
2023/01/02 03:23:38;;;;;;;15.75;7.95;;;11.40;99.90;;;;;;5055722;28;20068;-79
2023/01/02 03:26:04;;;;;;;15.38;8.52;;;11.30;99.90;;;;;;5047356;28;20049;-79
2023/01/02 03:28:31;;;;;;;16.42;8.07;;;11.30;99.90;;;;;;5060907;28;20048;-79
2023/01/02 03:31:01;;;;;;;20.35;7.88;;;11.30;99.90;;;;;;5048745;28;20062;-79
2023/01/02 03:33:36;;;;;;;16.20;7.60;;;11.40;99.90;;;;;;5032843;28;20040;-79
2023/01/02 03:36:08;;;;;;;18.55;7.60;;;11.60;99.90;;;;;;5040794;28;20795;-78
2023/01/02 03:38:46;;;;;;;;;;;11.40;99.90;;;;;;5055547;28;20044;-80
2023/01/02 03:41:16;;;;;;;16.17;7.05;;;11.40;99.90;;;;;;5047385;28;20340;-79
2023/01/02 03:43:45;;;;;;;16.63;8.50;;;12.10;99.90;;;;;;5051216;28;20033;-79
2023/01/02 03:46:20;;;;;;;16.63;7.70;;;12.10;99.90;;;;;;5027941;28;20496;-79
2023/01/02 03:49:13;;;;;;;18.50;8.13;;;11.40;99.90;;;;;;5035449;28;20037;-80
2023/01/02 03:51:40;;;;;;;17.05;7.50;;;11.60;99.90;;;;;;5016392;28;20052;-80
2023/01/02 03:54:06;;;;;;;20.17;8.80;;;11.80;99.90;;;;;;5065240;28;20068;-79
2023/01/02 03:56:45;;;;;;;18.95;7.85;;;11.70;99.90;;;;;;5049788;28;20055;-79
2023/01/02 03:59:15;;;;;;;18.25;8.05;;;11.80;99.90;;;;;;5039613;28;20558;-80
2023/01/02 04:02:00;;;;;;;16.08;7.22;;;11.90;99.90;;;;;;5053687;28;20065;-79
2023/01/02 04:04:34;;;;;;;13.70;7.40;;;11.40;99.90;;;;;;5046533;28;20036;-79
2023/01/02 04:07:03;;;;;;;18.20;7.82;;;11.60;99.90;;;;;;5049555;28;20112;-79
2023/01/02 04:09:32;;;;;;;17.10;7.45;;;12.00;99.90;;;;;;5050529;28;20037;-79
2023/01/02 04:12:03;;;;;;;13.80;7.70;;;11.60;99.90;;;;;;5054210;28;20087;-79
2023/01/02 04:14:41;;;;;;;17.38;7.82;;;11.80;99.90;;;;;;5036190;28;20045;-79
2023/01/02 04:17:08;;;;;;;16.17;8.05;;;11.90;99.90;;;;;;5036993;28;20033;-80
2023/01/02 04:20:00;;;;;;;18.33;7.43;;;11.70;99.90;;;;;;5057225;28;20397;-80
2023/01/02 04:22:35;;;;;;;15.90;7.35;;;11.50;99.90;;;;;;5033309;28;20045;-80
2023/01/02 04:25:13;;;;;;;17.02;7.50;;;11.50;99.90;;;;;;5054557;28;20036;-80
2023/01/02 04:27:59;;;;;;;15.77;7.55;;;11.50;99.90;;;;;;5047201;28;20036;-80
2023/01/02 04:30:28;;;;;;;16.17;7.00;;;11.50;99.90;;;;;;5052917;28;20534;-79
2023/01/02 04:32:58;;;;;;;16.88;7.13;;;11.50;99.90;;;;;;5036639;28;20505;-79
2023/01/02 04:35:24;;;;;;;15.00;7.32;;;11.60;99.90;;;;;;5050746;28;20043;-79
2023/01/02 04:37:49;;;;;;;14.07;7.10;;;12.30;99.90;;;;;;5044219;28;20090;-80
2023/01/02 04:40:28;;;;;;;17.20;6.72;;;12.10;99.90;;;;;;5052312;28;21040;-79
2023/01/02 04:42:54;;;;;;;15.48;8.00;;;11.60;99.90;;;;;;5053134;28;20036;-79
2023/01/02 04:45:20;;;;;;;16.92;7.15;;;11.00;99.90;;;;;;5031555;28;20033;-80
2023/01/02 04:47:49;;;;;;;17.75;7.15;;;11.80;99.90;;;;;;5048084;28;20052;-79
2023/01/02 04:50:16;;;;;;;12.50;6.93;;;12.40;99.90;;;;;;5056886;28;20120;-79
2023/01/02 04:52:41;;;;;;;12.38;6.80;;;11.70;99.90;;;;;;5048815;28;20036;-79
2023/01/02 04:55:08;;;;;;;14.65;6.93;;;12.20;99.90;;;;;;5053693;28;20041;-79
2023/01/02 04:57:35;;;;;;;13.45;6.38;;;11.70;99.90;;;;;;5050198;28;20069;-80
2023/01/02 05:00:04;;;;;;;14.65;6.32;;;12.60;99.90;;;;;;5038753;28;20062;-80
2023/01/02 05:02:37;;;;;;;18.48;6.63;;;11.70;99.90;;;;;;5020279;28;20036;-80
2023/01/02 05:05:06;;;;;;;12.77;6.32;;;11.80;99.90;;;;;;5053491;28;20190;-80
2023/01/02 05:07:33;;;;;;;14.30;6.05;;;11.80;99.90;;;;;;5060739;28;20132;-80
2023/01/02 05:09:59;;;;;;;13.98;6.30;;;12.50;99.90;;;;;;5052980;28;20052;-80
2023/01/02 05:12:24;;;;;;;15.07;5.97;;;11.80;99.90;;;;;;5050804;28;20045;-80
2023/01/02 05:14:50;;;;;;;12.23;6.10;;;11.80;99.90;;;;;;5054192;28;20033;-80
2023/01/02 05:17:15;;;;;;;16.08;6.65;;;11.80;99.90;;;;;;5050498;28;20493;-80
2023/01/02 05:19:41;;;;;;;11.43;6.03;;;11.30;99.90;;;;;;5047297;28;20033;-80
2023/01/02 05:24:54;;;;;;;14.35;6.25;;;11.90;99.90;;;;;;5044023;28;20411;-83
2023/01/02 05:27:19;;;;;;;13.63;5.97;;;11.90;99.90;;;;;;5050706;28;20484;-82
2023/01/02 05:29:45;;;;;;;13.15;6.00;;;11.90;99.90;;;;;;5048821;28;20040;-83
2023/01/02 05:32:10;;;;;;;14.57;6.97;;;11.90;99.90;;;;;;5069879;28;20079;-83
2023/01/02 05:34:36;;;;;;;15.15;6.50;;;12.00;99.90;;;;;;5055163;28;20036;-83
2023/01/02 05:37:01;;;;;;;13.95;6.50;;;12.00;99.90;;;;;;5046121;28;20045;-83
2023/01/02 05:39:27;;;;;;;11.15;6.05;;;12.00;99.90;;;;;;5068027;28;20043;-83
2023/01/02 05:41:53;;;;;;;13.68;5.93;;;12.00;99.90;;;;;;5055122;28;20552;-83
2023/01/02 05:44:18;;;;;;;13.38;6.05;;;12.30;99.90;;;;;;5055854;28;20028;-82
2023/01/02 05:46:44;;;;;;;12.73;5.75;;;12.00;99.90;;;;;;5066976;28;20082;-83
2023/01/02 05:49:11;;;;;;;10.20;5.70;;;12.10;99.90;;;;;;5050419;28;20082;-83
2023/01/02 05:51:37;;;;;;;17.02;6.43;;;12.10;99.90;;;;;;5067240;28;20484;-83
2023/01/02 05:54:03;;;;;;;16.00;6.55;;;12.00;99.90;;;;;;5066726;28;20036;-83
2023/01/02 05:56:29;;;;;;;13.82;5.63;;;12.10;99.90;;;;;;5061957;28;20025;-83
2023/01/02 05:58:55;;;;;;;10.60;5.45;;;12.10;99.90;;;;;;5045621;28;20446;-83
2023/01/02 06:01:26;;;;;;;12.80;5.53;;;12.10;99.90;;;;;;5051629;28;20039;-83
2023/01/02 06:03:55;;;;;;;11.80;5.90;;;12.10;99.90;;;;;;5070760;28;20521;-83
2023/01/02 06:06:26;;;;;;;13.18;5.53;;;12.70;99.90;;;;;;5055067;28;20048;-82
2023/01/02 06:08:51;;;;;;;11.32;5.60;;;12.10;99.90;;;;;;5064855;28;20496;-82
2023/01/02 06:11:17;;;;;;;14.77;6.20;;;12.10;99.90;;;;;;5067313;28;20075;-82
2023/01/02 06:13:42;;;;;;;12.95;5.53;;;12.10;99.90;;;;;;5075378;28;20075;-82
2023/01/02 06:16:09;;;;;;;14.68;5.30;;;12.10;99.90;;;;;;5041876;28;20036;-82
2023/01/02 06:18:37;;;;;;;13.98;6.22;;;12.10;99.90;;;;;;5063727;28;20040;-82
2023/01/02 06:21:08;;;;;;;14.25;5.82;;;12.10;99.90;;;;;;5065507;28;20047;-82
2023/01/02 06:23:34;;;;;;;14.32;5.30;;;12.30;99.90;;;;;;5060151;28;20032;-82
2023/01/02 06:26:09;;;;;;;11.38;5.38;;;12.10;99.90;;;;;;5060167;28;20475;-82
2023/01/02 06:28:35;;;;;;;12.23;5.22;;;12.10;99.90;;;;;;5074365;28;20036;-82
2023/01/02 06:31:02;;;;;;;12.32;5.28;;;12.10;99.90;;;;;;5058784;28;20050;-82
2023/01/02 06:33:29;;;;;;;11.35;5.97;;;12.10;99.90;;;;;;5059302;28;20052;-82
2023/01/02 06:35:59;;;;;;;12.50;6.57;;;12.10;99.90;;;;;;5066963;28;20039;-84
2023/01/02 06:38:25;;;;;;;13.57;5.38;;;12.10;99.90;;;;;;5062060;28;20047;-82
2023/01/02 06:40:55;;;;;;;10.02;5.32;;;12.10;99.90;;;;;;5074022;28;20275;-82
2023/01/02 06:43:21;;;;;;;10.85;5.88;;;12.10;99.90;;;;;;5071800;28;20029;-82
2023/01/02 06:45:46;;;;;;;8.80;5.50;;;12.40;99.90;;;;;;5072615;28;20036;-82
2023/01/02 06:48:12;;;;;;;10.07;5.53;;;12.10;99.90;;;;;;5069528;28;20036;-82
2023/01/02 06:50:38;;;;;;;10.70;5.65;;;12.10;99.90;;;;;;5064577;28;20093;-83
2023/01/02 06:53:03;;;;;;;10.98;5.70;;;12.10;99.90;;;;;;5055546;28;20047;-82
2023/01/02 06:55:29;;;;;;;8.15;5.32;;;12.10;99.90;;;;;;5069895;28;20044;-82
2023/01/02 06:57:55;;;;;;;11.55;4.97;;;12.10;99.90;;;;;;5056504;28;20119;-83
2023/01/02 07:00:20;;;;;;;5.28;3.38;;;12.20;99.90;;;;;;5069012;28;20128;-83
2023/01/02 07:02:46;;;;;;;4.35;2.67;;;12.20;99.90;;;;;;5063873;28;20036;-84
2023/01/02 07:05:12;;;;;;;4.05;2.58;;;12.00;99.90;;;;;;5069102;28;20478;-84
2023/01/02 07:07:37;;;;;;;4.97;2.60;;;12.00;99.90;;;;;;5070334;28;20032;-83
2023/01/02 07:10:04;;;;;;;4.70;2.90;;;11.80;99.90;;;;;;5050721;28;20446;-83
2023/01/02 07:12:29;;;;;;;4.15;2.65;;;11.60;99.90;;;;;;5086279;28;20064;-83
2023/01/02 07:14:55;;;;;;;3.90;3.10;;;11.50;99.90;;;;;;5051950;28;20600;-83
2023/01/02 07:17:21;;;;;;;3.80;2.92;;;11.60;99.90;;;;;;5053522;28;20418;-83
2023/01/02 07:19:46;;;;;;;4.65;3.42;;;11.30;99.90;;;;;;5064297;28;20032;-82
2023/01/02 07:22:12;;;;;;;4.90;3.50;;;11.50;99.90;;;;;;5068991;28;20053;-83
2023/01/02 07:24:37;;;;;;;6.70;3.60;;;11.10;99.90;;;;;;5074696;28;20528;-83
2023/01/02 07:27:03;;;;;;;5.72;4.00;;;11.00;99.90;;;;;;5071734;28;20048;-83
2023/01/02 07:29:29;;;;;;;5.50;4.07;;;10.90;99.90;;;;;;5066754;28;20085;-83
2023/01/02 07:31:54;;;;;;;7.85;5.15;;;11.00;99.90;;;;;;5067516;28;21519;-83
2023/01/02 07:34:20;;;;;;;5.90;4.38;;;10.90;99.90;;;;;;5052986;28;20101;-84
2023/01/02 07:36:45;;;;;;;8.13;4.82;;;10.80;99.90;;;;;;5055302;28;20032;-83
2023/01/02 07:39:11;;;;;;;5.78;4.32;;;10.70;99.90;;;;;;5057542;28;20563;-83
2023/01/02 07:41:36;;;;;;;7.03;4.93;;;10.70;99.90;;;;;;5062874;28;20029;-83
2023/01/02 07:44:02;;;;;;;6.78;4.72;;;10.60;99.90;;;;;;5061199;28;20052;-82
2023/01/02 07:46:28;;;;;;;7.50;4.82;;;10.60;99.90;;;;;;5061099;28;20025;-83
2023/01/02 07:48:53;;;;;;;6.88;4.70;;;10.60;99.90;;;;;;5062459;28;20040;-83
2023/01/02 07:51:19;;;;;;;7.97;4.65;;;10.50;99.90;;;;;;5062598;28;20036;-83
2023/01/02 07:53:44;;;;;;;9.95;4.60;;;10.50;99.90;;;;;;5062774;28;20036;-82
2023/01/02 07:56:10;;;;;;;7.82;5.00;;;10.40;99.90;;;;;;5071481;28;20044;-82
2023/01/02 07:58:36;;;;;;;7.13;4.85;;;10.40;99.90;;;;;;5067163;28;20617;-83
2023/01/02 08:01:07;;;;;;;7.97;5.25;;;10.30;99.90;;;;;;5057235;28;20048;-83
2023/01/02 08:03:33;;;;;;;9.85;4.82;;;10.30;99.90;;;;;;5069679;28;20388;-81
2023/01/02 08:06:04;;;;;;;7.97;3.88;;;10.20;99.90;;;;;;5069311;28;20047;-82
2023/01/02 08:08:30;;;;;;;8.90;4.25;;;10.20;99.90;;;;;;5066174;28;20035;-82
2023/01/02 08:10:55;;;;;;;9.35;3.90;;;10.10;99.90;;;;;;5067293;28;20040;-82
2023/01/02 08:13:21;;;;;;;5.35;3.10;;;10.00;99.90;;;;;;5072094;28;20048;-83
2023/01/02 08:15:46;;;;;;;6.15;3.10;;;10.00;99.90;;;;;;5066546;28;20043;-82
2023/01/02 08:18:12;;;;;;;5.63;2.90;;;9.90;99.90;;;;;;5064295;28;20032;-82
2023/01/02 08:20:38;;;;;;;5.88;3.13;;;9.90;99.90;;;;;;5069110;28;20044;-83
2023/01/02 08:23:03;;;;;;;5.40;2.72;;;9.80;99.90;;;;;;5058524;28;20044;-83
2023/01/02 08:25:29;;;;;;;7.40;2.72;;;9.80;99.90;;;;;;5064247;28;20067;-82
2023/01/02 08:27:54;;;;;;;4.97;2.58;;;9.80;99.90;;;;;;5068851;28;20036;-84
2023/01/02 08:30:20;;;;;;;5.65;2.42;;;10.10;99.90;;;;;;5069545;28;20727;-79
2023/01/02 08:32:46;;;;;;;5.95;2.47;;;9.70;99.90;;;;;;5070980;28;20032;-80
2023/01/02 08:35:11;;;;;;;4.35;2.30;;;9.70;99.90;;;;;;5070278;28;20043;-79
2023/01/02 08:37:37;;;;;;;6.70;2.50;;;9.70;99.90;;;;;;5072469;28;20480;-79
2023/01/02 08:40:03;;;;;;;5.00;2.38;;;9.70;99.90;;;;;;5067662;28;20118;-80
2023/01/02 08:42:28;;;;;;;4.00;2.17;;;9.70;99.90;;;;;;5070589;28;20028;-80
2023/01/02 08:44:54;;;;;;;4.35;2.13;;;9.60;99.90;;;;;;5069936;28;20411;-79
2023/01/02 08:47:19;;;;;;;5.13;1.90;;;9.60;99.90;;;;;;5076401;28;20044;-79
2023/01/02 08:49:45;;;;;;;4.50;1.80;;;9.60;99.90;;;;;;5074786;28;20044;-79
2023/01/02 08:52:11;;;;;;;3.22;1.60;;;9.50;99.90;;;;;;5072301;28;20500;-80
2023/01/02 08:54:36;;;;;;;3.83;1.48;;;9.50;99.90;;;;;;5077327;28;20046;-79
2023/01/02 08:57:02;;;;;;;2.53;1.50;;;9.50;99.90;;;;;;5073631;28;20040;-79
2023/01/02 08:59:27;;;;;;;2.78;1.48;;;9.50;99.90;;;;;;5078534;28;20044;-79
2023/01/02 09:01:53;;;;;;;3.80;1.60;;;9.40;99.90;;;;;;5095746;28;20131;-80
2023/01/02 09:04:19;;;;;;;3.83;2.00;;;9.40;99.90;;;;;;5079079;28;20522;-79
2023/01/02 09:06:45;;;;;;;4.53;1.83;;;9.50;99.90;;;;;;5077673;28;20165;-79
2023/01/02 09:09:13;;;;;;;3.38;1.80;;;9.40;99.90;;;;;;5058125;28;20028;-80
2023/01/02 09:11:47;;;;;;;4.30;2.25;;;9.40;99.90;;;;;;5057585;28;20057;-80
2023/01/02 09:14:13;;;;;;;5.07;2.10;;;9.30;99.90;;;;;;5087776;28;20040;-84
2023/01/02 09:16:39;;;;;;;3.85;1.98;;;9.30;99.90;;;;;;5070376;28;20036;-84
2023/01/02 09:19:04;;;;;;;4.72;2.03;;;9.30;99.90;;;;;;5070002;28;20045;-84
2023/01/02 09:21:30;;;;;;;3.97;1.92;;;9.30;99.90;;;;;;5072614;28;20122;-83
2023/01/02 09:23:56;;;;;;;2.33;1.50;;;9.20;99.90;;;;;;5070625;28;20063;-84
2023/01/02 09:26:21;;;;;;;2.75;1.65;;;9.20;99.90;;;;;;5059053;28;20036;-84
2023/01/02 09:28:47;;;;;;;4.82;1.80;;;9.20;99.90;;;;;;5058412;28;20122;-84
2023/01/02 09:31:15;;;;;;;4.00;1.90;;;9.20;99.90;;;;;;5071834;28;20043;-84
2023/01/02 09:33:43;;;;;;;3.50;1.60;;;9.10;99.90;;;;;;5090594;28;20079;-82
2023/01/02 09:36:10;;;;;;;7.50;2.08;;;9.20;99.90;;;;;;5073951;28;20523;-84
2023/01/02 09:38:36;;;;;;;5.22;2.10;;;9.20;99.90;;;;;;5073006;28;20050;-84
2023/01/02 09:41:10;;;;;;;5.85;2.30;;;9.20;99.90;;;;;;5057932;28;20512;-83
2023/01/02 09:43:42;;;;;;;5.40;2.00;;;9.60;99.90;;;;;;5077438;28;20096;-83
2023/01/02 09:46:27;;;;;;;3.95;1.92;;;9.20;99.90;;;;;;5071738;28;20040;-83
2023/01/02 09:48:53;;;;;;;6.22;1.98;;;9.20;99.90;;;;;;5066217;28;20483;-83
2023/01/02 09:51:19;;;;;;;5.28;1.90;;;9.20;99.90;;;;;;5064604;28;20103;-83
2023/01/02 09:53:45;;;;;;;3.50;1.80;;;9.20;99.90;;;;;;5058396;28;20068;-83
2023/01/02 09:56:33;;;;;;;4.40;1.92;;;9.20;99.90;;;;;;5062635;28;20047;-82
2023/01/02 09:59:30;;;;;;;4.90;2.00;;;9.20;99.90;;;;;;5084526;28;20506;-83
2023/01/02 10:02:05;;;;;;;4.65;2.00;;;9.20;99.90;;;;;;5080171;28;20036;-84
2023/01/02 10:04:58;;;;;;;4.40;1.85;;;9.20;99.90;;;;;;5068295;28;20043;-83
2023/01/02 10:07:40;;;;;;;4.80;1.90;;;9.20;99.90;;;;;;5065883;28;20403;-84
2023/01/02 10:10:14;;;;;;;5.95;2.58;;;9.20;99.90;;;;;;5070453;28;20036;-82
2023/01/02 10:13:17;;;;;;;5.55;2.13;;;10.00;99.90;;;;;;5073931;28;20036;-83
2023/01/02 10:15:46;;;;;;;5.68;2.10;;;9.40;99.90;;;;;;5086721;28;20079;-82
2023/01/02 10:18:36;;;;;;;3.72;1.85;;;9.40;99.90;;;;;;5074164;28;20089;-84
2023/01/02 10:21:33;;;;;;;3.65;1.77;;;9.70;99.90;;;;;;5072589;28;20043;-82
2023/01/02 10:24:12;;;;;;;6.25;2.10;;;9.40;99.90;;;;;;5057286;28;20047;-83
2023/01/02 10:26:42;;;;;;;5.45;1.90;;;9.50;99.90;;;;;;5075833;28;20111;-82
2023/01/02 10:29:14;;;;;;;2.72;1.75;;;9.40;99.90;;;;;;5077873;28;20044;-82
2023/01/02 10:31:50;;;;;;;3.15;1.58;;;9.40;99.90;;;;;;5075381;28;20059;-82
2023/01/02 10:34:22;;;;;;;3.20;1.83;;;9.40;99.90;;;;;;5063323;28;20065;-82
2023/01/02 10:36:48;;;;;;;;;;;9.40;99.90;;;;;;5073502;28;20064;-82
2023/01/02 10:39:23;;;;;;;3.60;1.98;;;9.40;99.90;;;;;;5072188;28;19931;-81
2023/01/02 10:41:55;;;;;;;4.50;2.15;;;9.40;99.90;;;;;;5073351;28;20041;-80
2023/01/02 10:44:25;;;;;;;3.88;2.42;;;9.40;99.90;;;;;;5064238;28;20083;-83
2023/01/02 10:46:50;;;;;;;5.10;2.15;;;9.40;99.90;;;;;;5071671;28;20056;-82
2023/01/02 10:49:18;;;;;;;8.35;2.75;;;9.40;99.90;;;;;;5052891;28;20518;-82
2023/01/02 10:52:01;;;;;;;5.68;2.67;;;9.40;99.90;;;;;;5063718;28;20050;-82
2023/01/02 10:54:27;;;;;;;5.80;2.63;;;9.40;99.90;;;;;;5047206;28;20040;-83
2023/01/02 10:56:53;;;;;;;7.97;3.40;;;9.70;99.90;;;;;;5073957;28;20474;-83
2023/01/02 10:59:27;;;;;;;6.68;3.15;;;9.50;99.90;;;;;;5063291;28;20059;-83
2023/01/02 11:01:56;;;;;;;7.43;3.38;;;9.50;99.90;;;;;;5074057;28;20040;-82
2023/01/02 11:04:29;;;;;;;6.95;3.53;;;9.50;99.90;;;;;;5068220;28;20047;-82
2023/01/02 11:06:57;;;;;;;6.68;3.28;;;9.50;99.90;;;;;;5062938;28;20103;-82
2023/01/02 11:09:25;;;;;;;8.50;3.05;;;9.50;99.90;;;;;;5061025;28;20043;-82
2023/01/02 11:11:54;;;;;;;8.90;2.92;;;9.50;99.90;;;;;;5071796;28;20061;-82
2023/01/02 11:14:27;;;;;;;7.82;3.00;;;9.50;99.90;;;;;;5063393;28;20541;-82
2023/01/02 11:17:22;;;;;;;7.00;3.00;;;9.50;99.90;;;;;;5064283;28;20028;-82
2023/01/02 11:19:51;;;;;;;6.43;3.60;;;9.50;99.90;;;;;;5058695;28;20044;-82
2023/01/02 11:22:36;;;;;;;6.10;3.50;;;9.50;99.90;;;;;;5068849;28;20037;-82
2023/01/02 11:25:17;;;;;;;8.25;3.85;;;9.50;99.90;;;;;;5045828;22;20049;-78
2023/01/02 11:27:43;;;;;;;7.85;4.60;;;9.60;99.90;;;;;;5027410;28;20037;-78
2023/01/02 11:30:28;;;;;;;8.25;3.90;;;9.50;99.90;;;;;;5018806;28;20496;-79
2023/01/02 11:33:04;;;;;;;9.13;4.80;;;9.50;99.90;;;;;;4999150;28;20231;-79
2023/01/02 11:35:38;;;;;;;7.78;3.90;;;9.50;99.90;;;;;;5015085;28;20048;-79
2023/01/02 11:38:10;;;;;;;7.15;4.40;;;9.50;99.90;;;;;;5025950;28;20451;-78
2023/01/02 11:40:36;;;;;;;8.45;3.65;;;9.70;99.90;;;;;;5028415;28;20037;-77
2023/01/02 11:45:51;;;;;;;8.35;3.65;;;9.50;99.90;;;;;;5021439;28;20130;-80
2023/01/02 11:48:21;;;;;;;8.40;3.63;;;9.50;99.90;;;;;;5022592;28;20045;-79
2023/01/02 11:50:48;;;;;;;9.50;2.70;;;9.50;99.90;;;;;;5013222;28;20128;-80
2023/01/02 11:53:27;;;;;;;10.68;2.95;;;9.50;99.90;;;;;;5007511;28;20116;-79
2023/01/02 11:56:21;;;;;;;5.50;2.72;;;9.50;99.90;;;;;;5004308;28;20041;-79
2023/01/02 11:59:01;;;;;;;10.05;2.78;;;9.50;99.90;;;;;;4994907;28;20041;-80
2023/01/02 12:02:18;;;;;;;7.80;2.50;;;9.50;99.90;;;;;;5031377;28;20033;-79
2023/01/02 12:04:44;;;;;;;7.47;2.10;;;9.60;99.90;;;;;;4976383;28;20041;-79
2023/01/02 12:07:49;;;;;;;5.75;2.00;;;9.70;99.90;;;;;;5011803;28;20056;-78
2023/01/02 12:10:39;;;;;;;7.20;2.00;;;9.70;99.90;;;;;;5021706;28;20067;-78
2023/01/02 12:13:16;;;;;;;5.40;1.80;;;9.70;99.90;;;;;;5010790;28;20059;-78
2023/01/02 12:16:16;;;;;;;9.07;2.15;;;9.60;99.90;;;;;;5003501;28;20049;-78
2023/01/02 12:19:13;;;;;;;6.13;1.80;;;9.60;99.90;;;;;;5011592;28;20116;-77
2023/01/02 12:21:59;;;;;;;6.95;1.83;;;9.60;99.90;;;;;;5017320;28;20099;-77
2023/01/02 12:24:44;;;;;;;4.18;1.50;;;9.50;99.90;;;;;;5021769;28;20154;-76
2023/01/02 12:27:18;;;;;;;6.35;1.90;;;9.50;99.90;;;;;;5016282;28;20048;-77
2023/01/02 12:30:04;;;;;;;6.93;1.75;;;9.50;99.90;;;;;;5020432;28;20098;-77
2023/01/02 12:32:56;;;;;;;5.82;1.45;;;9.50;99.90;;;;;;5012604;28;20049;-78
2023/01/02 12:35:46;;;;;;;8.23;1.90;;;9.50;99.90;;;;;;5013633;28;21249;-79
2023/01/02 12:38:32;;;;;;;8.23;1.95;;;9.50;99.90;;;;;;5003501;28;20053;-79
2023/01/02 12:41:25;;;;;;;7.25;1.80;;;9.70;99.90;;;;;;5022433;28;20123;-79
2023/01/02 12:44:16;;;;;;;7.70;2.00;;;9.50;99.90;;;;;;5013179;28;20058;-78
2023/01/02 12:47:16;;;;;;;7.05;1.90;;;9.50;99.90;;;;;;5008101;28;20044;-78
2023/01/02 12:49:55;;;;;;;9.13;2.03;;;9.50;99.90;;;;;;5005186;28;20051;-78
2023/01/02 12:52:45;;;;;;;11.48;2.33;;;9.50;99.90;;;;;;5011201;28;20532;-78
2023/01/02 12:55:19;;;;;;;9.30;2.90;;;9.50;99.90;;;;;;5019334;28;20049;-78
2023/01/02 12:58:00;;;;;;;9.70;1.90;;;9.50;99.90;;;;;;5026772;28;20418;-78
2023/01/02 13:00:44;;;;;;;7.20;2.00;;;9.50;99.90;;;;;;5013729;28;20048;-78
2023/01/02 13:03:30;;;;;;;9.88;2.58;;;9.60;99.90;;;;;;5005486;28;20038;-78
2023/01/02 13:06:10;;;;;;;9.52;2.55;;;9.50;99.90;;;;;;5016348;28;20037;-79
2023/01/02 13:08:45;;;;;;;8.40;2.28;;;9.50;99.90;;;;;;5016844;28;20037;-79
2023/01/02 13:11:19;;;;;;;9.45;2.50;;;9.50;99.90;;;;;;5019812;28;20500;-79
2023/01/02 13:13:46;;;;;;;15.90;2.75;;;9.60;99.90;;;;;;5011087;28;20153;-80
2023/01/02 13:16:15;;;;;;;10.95;3.08;;;9.60;99.90;;;;;;5008011;28;20527;-79